KCOU/COU METAR and TAF weather

Enter ICAO airport designator
Station Type Date Time Source
KCOU METAR 2023/01/30 11:54 UTC NOAA

KCOU 301154Z AUTO 36011KT 10SM OVC023 M09/M15 A3039 RMK AO2 SLP303 60000 I6001 T10891150 11072 21089 53008 $


Station Type Date Time Source
KCOU Decoded METAR 2023/01/30 11:54 UTC NOAA

COLUMBIA REGIONAL AIRPORT, MO, United States (KCOU) 38-49N 092-13W 271M
Jan 30, 2023 - 06:54 AM EST / 2023.01.30 1154 UTC
Wind: from the N (360 degrees) at 13 MPH (11 KT):0
Visibility: 10 mile(s):0
Sky conditions: overcast
Temperature: 16.0 F (-8.9 C)
Windchill: 1 F (-17 C):1
Dew Point: 5.0 F (-15.0 C)
Relative Humidity: 61%
Pressure (altimeter): 30.39 in. Hg (1029 hPa)
Pressure tendency: 0.02 inches (0.8 hPa) higher than three hours ago
ob: KCOU 301154Z AUTO 36011KT 10SM OVC023 M09/M15 A3039 RMK AO2 SLP303 60000 I6001 T10891150 11072 21089 53008
cycle: 12

Station Type Date Time Source
KCOU TAF 2023/01/30 12:42 UTC NOAA

TAF KCOU 301139Z 3012/3112 36011KT P6SM OVC025
FM301700 36008KT P6SM BKN035
FM310800 VRB04KT P6SM FEW250

Example: see airport list